Time;durP1;ratioP1;P1;durP2;ratioP2;P2;SDS_P1;SDS_P2;PMS_P1;PMS_P2;Temp;Humidity;BMP_temperature;BMP_pressure;BME280_temperature;BME280_humidity;BME280_pressure;Samples;Min_cycle;Max_cycle;Signal;HPM_P1;HPM_P2
2022/04/21 00:01:02;;;;;;;17.95;10.05;;;;;;;11.39;73.35;100374.22;5055696;28;20033;-63
2022/04/21 00:03:28;;;;;;;16.13;9.73;;;;;;;11.33;73.13;100375.25;5054064;28;20078;-63
2022/04/21 00:05:53;;;;;;;15.10;9.60;;;;;;;11.45;72.86;100374.94;5055130;28;20456;-63
2022/04/21 00:08:20;;;;;;;13.73;9.75;;;;;;;11.44;72.67;100370.53;5053894;28;20032;-63
2022/04/21 00:10:45;;;;;;;16.35;8.85;;;;;;;11.58;72.35;100378.09;5054325;28;20091;-64
2022/04/21 00:13:11;;;;;;;16.10;8.43;;;;;;;11.59;72.18;100375.44;5053884;28;20036;-63
2022/04/21 00:15:37;;;;;;;13.88;9.00;;;;;;;11.53;72.00;100362.44;5055263;28;20036;-63
2022/04/21 00:18:02;;;;;;;14.73;8.60;;;;;;;11.37;72.75;100369.00;5055183;28;20056;-64
2022/04/21 00:20:28;;;;;;;15.90;9.32;;;;;;;11.45;72.39;100360.88;5054700;28;20451;-64
2022/04/21 00:25:37;;;;;;;16.10;9.13;;;;;;;11.25;73.23;100370.16;5054846;28;20122;-64
2022/04/21 00:28:05;;;;;;;14.90;8.77;;;;;;;11.20;73.58;100365.91;5054870;28;20029;-65
2022/04/21 00:30:31;;;;;;;14.68;8.82;;;;;;;11.17;73.62;100365.97;5054750;28;20044;-63
2022/04/21 00:32:56;;;;;;;13.65;8.30;;;;;;;11.18;73.73;100365.94;5054975;28;20111;-64
2022/04/21 00:35:22;;;;;;;15.88;8.13;;;;;;;11.16;74.00;100372.13;5055144;28;20060;-64
2022/04/21 00:37:56;;;;;;;14.80;9.23;;;;;;;11.26;73.29;100365.75;5055139;28;20091;-64
2022/04/21 00:40:26;;;;;;;13.93;7.55;;;;;;;11.45;72.53;100374.03;5054424;28;20057;-63
2022/04/21 00:42:51;;;;;;;18.00;9.35;;;;;;;11.41;72.43;100370.66;5055181;28;20065;-64
2022/04/21 00:45:17;;;;;;;14.55;8.65;;;;;;;11.42;71.80;100367.09;5054785;28;20483;-63
2022/04/21 00:47:45;;;;;;;18.85;8.23;;;;;;;11.41;72.02;100372.38;5053205;28;20029;-63
2022/04/21 00:50:15;;;;;;;12.43;8.27;;;;;;;11.28;72.41;100372.69;5054507;28;20029;-64
2022/04/21 00:52:41;;;;;;;15.25;7.38;;;;;;;11.23;72.82;100377.22;5053513;28;20452;-64
2022/04/21 00:55:08;;;;;;;11.88;7.28;;;;;;;11.45;71.60;100366.16;5054600;28;20112;-63
2022/04/21 00:57:34;;;;;;;16.90;9.00;;;;;;;11.41;71.48;100375.03;5053436;28;20435;-64
2022/04/21 01:00:00;;;;;;;11.82;7.25;;;;;;;11.50;70.85;100375.66;5054462;28;20037;-64
2022/04/21 01:05:11;;;;;;;17.38;7.80;;;;;;;11.27;72.01;100370.13;5053984;28;20451;-65
2022/04/21 01:07:37;;;;;;;14.07;8.38;;;;;;;11.20;72.30;100373.78;5054528;28;20464;-64
2022/04/21 01:10:02;;;;;;;16.38;7.97;;;;;;;11.16;72.19;100369.50;5054482;28;20548;-62
2022/04/21 01:12:30;;;;;;;16.02;7.57;;;;;;;11.10;72.54;100368.75;5053422;28;20055;-63
2022/04/21 01:14:56;;;;;;;13.68;7.45;;;;;;;11.05;72.72;100375.91;5053483;28;20102;-63
2022/04/21 01:17:33;;;;;;;14.02;7.00;;;;;;;11.07;72.18;100362.72;5053698;28;20473;-64
2022/04/21 01:19:58;;;;;;;13.95;7.30;;;;;;;10.92;73.02;100366.56;5054385;28;20060;-64
2022/04/21 01:22:24;;;;;;;15.35;8.18;;;;;;;10.86;73.31;100369.34;5053662;28;20041;-63
2022/04/21 01:24:49;;;;;;;12.75;7.45;;;;;;;10.77;73.52;100372.16;5053877;28;20040;-64
2022/04/21 01:27:15;;;;;;;13.13;7.38;;;;;;;10.73;73.85;100365.25;5053873;28;20431;-64
2022/04/21 01:29:40;;;;;;;15.93;7.57;;;;;;;10.68;74.05;100369.75;5053814;28;20470;-64
2022/04/21 01:32:06;;;;;;;16.15;7.15;;;;;;;10.70;73.81;100360.09;5053582;28;20366;-64
2022/04/21 01:34:31;;;;;;;17.20;7.90;;;;;;;10.58;73.87;100369.97;5052538;28;20116;-63
2022/04/21 01:42:25;;;;;;;13.98;7.93;;;;;;;10.49;74.38;100364.91;5053876;28;20157;-65
2022/04/21 01:44:50;;;;;;;10.68;6.70;;;;;;;10.52;74.23;100370.06;5053687;28;20037;-65
2022/04/21 01:47:16;;;;;;;10.93;6.32;;;;;;;10.48;74.34;100354.41;5052036;28;20033;-63
2022/04/21 01:49:41;;;;;;;13.10;6.72;;;;;;;10.44;74.67;100361.50;5053250;28;20471;-63
2022/04/21 01:52:06;;;;;;;12.93;6.32;;;;;;;10.46;74.38;100359.72;5053433;28;20037;-64
2022/04/21 01:54:32;;;;;;;12.57;6.15;;;;;;;10.51;74.08;100357.84;5053559;28;20046;-64
2022/04/21 01:56:57;;;;;;;12.25;5.95;;;;;;;10.57;73.86;100362.09;5053543;28;20040;-63
2022/04/21 01:59:23;;;;;;;13.73;6.90;;;;;;;10.49;74.14;100362.28;5053276;28;20116;-65
2022/04/21 02:01:50;;;;;;;11.52;6.25;;;;;;;10.43;74.32;100357.16;5053434;28;20055;-64
2022/04/21 02:04:16;;;;;;;13.30;6.20;;;;;;;10.40;74.65;100358.97;5052565;28;20417;-65
2022/04/21 02:06:41;;;;;;;11.20;6.30;;;;;;;10.44;74.17;100361.50;5053657;28;20036;-64
2022/04/21 02:09:06;;;;;;;13.40;7.32;;;;;;;10.43;74.33;100362.41;5053328;28;20025;-63
2022/04/21 02:11:32;;;;;;;11.40;6.82;;;;;;;10.40;74.42;100367.72;5035371;28;20478;-65
2022/04/21 02:13:57;;;;;;;12.45;6.32;;;;;;;10.54;73.98;100367.44;5053479;28;20033;-64
2022/04/21 02:16:23;;;;;;;13.63;6.97;;;;;;;10.55;73.64;100367.38;5052924;28;20036;-64
2022/04/21 02:18:48;;;;;;;12.27;6.50;;;;;;;10.56;73.69;100369.09;5052954;28;20102;-62
2022/04/21 02:21:14;;;;;;;10.23;6.00;;;;;;;10.51;73.91;100370.13;5053048;28;20464;-64
2022/04/21 02:23:39;;;;;;;11.18;6.47;;;;;;;10.58;73.62;100371.72;5052641;28;20040;-64
2022/04/21 02:26:05;;;;;;;11.40;6.35;;;;;;;10.57;73.76;100370.88;5053071;28;20037;-63
2022/04/21 02:28:30;;;;;;;11.07;5.95;;;;;;;10.61;73.43;100366.38;5052559;28;20040;-63
2022/04/21 02:30:55;;;;;;;12.05;6.50;;;;;;;10.64;73.29;100368.09;5052941;28;20025;-64
2022/04/21 02:33:21;;;;;;;12.63;6.30;;;;;;;10.73;72.83;100370.50;5052497;28;20041;-64
2022/04/21 02:35:47;;;;;;;14.88;6.10;;;;;;;10.85;72.58;100370.22;5052563;28;20082;-63
2022/04/21 02:38:13;;;;;;;10.70;5.20;;;;;;;10.99;72.02;100373.41;5051471;28;20067;-63
2022/04/21 02:40:38;;;;;;;9.25;5.47;;;;;;;11.10;71.50;100373.16;5052717;28;20041;-63
2022/04/21 02:43:03;;;;;;;10.82;5.55;;;;;;;11.20;71.16;100372.03;5051488;28;20468;-64
2022/04/21 02:45:29;;;;;;;8.27;5.03;;;;;;;11.19;71.12;100385.22;5052246;28;20124;-64
2022/04/21 02:47:55;;;;;;;8.88;5.78;;;;;;;11.28;70.70;100385.84;5052517;28;20029;-64
2022/04/21 02:50:20;;;;;;;11.15;5.32;;;;;;;11.33;70.64;100381.34;5051458;28;20358;-64
2022/04/21 02:52:47;;;;;;;10.70;5.57;;;;;;;11.35;70.30;100381.31;5053085;28;20033;-65
2022/04/21 02:57:57;;;;;;;10.45;5.28;;;;;;;11.48;69.99;100385.34;5048018;28;20546;-64
2022/04/21 03:00:23;;;;;;;11.55;5.50;;;;;;;11.55;69.67;100388.69;5034474;28;20025;-64
2022/04/21 03:02:48;;;;;;;7.93;5.07;;;;;;;11.62;69.33;100392.91;5051253;28;20044;-63
2022/04/21 03:05:16;;;;;;;8.30;5.18;;;;;;;11.71;68.88;100394.44;5052154;28;20036;-63
2022/04/21 03:07:42;;;;;;;8.50;5.38;;;;;;;11.64;69.02;100390.22;5052583;28;20153;-64
2022/04/21 03:10:08;;;;;;;9.02;5.30;;;;;;;11.60;69.22;100387.66;5052253;28;20609;-63
2022/04/21 03:12:34;;;;;;;9.15;5.38;;;;;;;11.66;69.07;100397.19;5051124;28;20460;-64
2022/04/21 03:14:59;;;;;;;9.75;5.63;;;;;;;11.60;69.26;100398.19;5053803;28;20481;-63
2022/04/21 03:17:25;;;;;;;9.05;5.32;;;;;;;11.67;68.91;100398.06;5056267;28;20037;-64
2022/04/21 03:19:51;;;;;;;12.13;6.10;;;;;;;11.61;69.07;100399.09;5056114;28;20209;-64
2022/04/21 03:25:01;;;;;;;8.98;5.43;;;;;;;11.66;68.84;100393.69;5052407;28;20040;-64
2022/04/21 03:27:29;;;;;;;13.38;6.60;;;;;;;11.69;68.50;100396.22;5055956;28;20035;-64
2022/04/21 03:29:57;;;;;;;8.50;5.88;;;;;;;11.74;68.12;100394.38;5056017;28;20025;-64
2022/04/21 03:32:23;;;;;;;9.48;5.45;;;;;;;11.77;68.21;100399.56;5055125;28;20037;-65
2022/04/21 03:34:48;;;;;;;9.75;5.70;;;;;;;11.75;68.18;100402.22;5054916;28;21069;-64
2022/04/21 03:37:15;;;;;;;12.13;6.85;;;;;;;11.86;67.91;100407.25;5053028;28;20111;-64
2022/04/21 03:39:42;;;;;;;12.38;6.22;;;;;;;11.81;67.83;100406.47;5054359;28;20025;-65
2022/04/21 03:42:18;;;;;;;10.85;6.03;;;;;;;11.91;67.15;100413.22;5053622;28;20155;-65
2022/04/21 03:44:43;;;;;;;10.70;6.43;;;;;;;11.99;67.49;100413.03;5054788;28;20037;-64
2022/04/21 03:47:09;;;;;;;9.85;6.47;;;;;;;11.98;67.43;100403.41;5055025;28;20041;-64
2022/04/21 03:49:34;;;;;;;10.40;6.63;;;;;;;11.97;67.33;100406.94;5053032;28;20033;-64
2022/04/21 03:52:00;;;;;;;11.40;5.80;;;;;;;11.99;67.21;100405.13;5054764;28;20035;-64
2022/04/21 03:54:26;;;;;;;9.85;5.45;;;;;;;12.07;67.12;100409.28;5052986;28;20053;-64
2022/04/21 03:56:53;;;;;;;12.00;6.85;;;;;;;12.10;66.98;100415.38;5054916;28;20029;-65
2022/04/21 03:59:20;;;;;;;13.38;6.45;;;;;;;12.10;67.05;100407.47;5053184;28;20029;-63
2022/04/21 04:01:45;;;;;;;10.65;5.88;;;;;;;12.12;66.95;100411.78;5056591;28;20388;-64
2022/04/21 04:04:11;;;;;;;10.23;6.13;;;;;;;12.10;66.86;100412.75;5055338;28;20033;-64
2022/04/21 04:12:06;;;;;;;11.80;6.03;;;;;;;12.06;66.99;100417.22;5053056;28;20088;-64
2022/04/21 04:14:32;;;;;;;12.95;5.82;;;;;;;12.10;66.83;100420.66;5053266;28;20068;-64
2022/04/21 04:16:57;;;;;;;10.82;5.47;;;;;;;12.17;66.74;100423.09;5056099;28;20472;-64
2022/04/21 04:19:23;;;;;;;12.57;6.63;;;;;;;12.19;66.71;100423.03;5053420;28;20057;-63
2022/04/21 04:21:49;;;;;;;9.13;6.22;;;;;;;12.23;66.75;100435.19;5053427;28;20039;-63
2022/04/21 04:24:15;;;;;;;10.52;5.78;;;;;;;12.33;66.42;100436.69;5052622;28;20040;-65
2022/04/21 04:26:40;;;;;;;10.30;6.05;;;;;;;12.40;66.37;100438.22;5052453;28;20111;-66
2022/04/21 04:29:06;;;;;;;19.88;11.50;;;;;;;12.42;66.09;100428.53;5053077;28;20087;-65
2022/04/21 04:31:33;;;;;;;11.90;6.55;;;;;;;12.46;65.96;100429.28;5054788;28;20365;-65
2022/04/21 04:33:59;;;;;;;13.18;6.75;;;;;;;12.26;66.64;100425.44;5055104;28;20114;-65
2022/04/21 04:36:25;;;;;;;19.48;12.02;;;;;;;12.25;66.67;100428.13;5056432;28;20037;-66
2022/04/21 04:38:50;;;;;;;21.80;13.85;;;;;;;12.26;66.54;100428.09;5054108;28;20362;-65
2022/04/21 04:44:08;;;;;;;15.85;10.00;;;;;;;12.45;66.03;100430.22;5038583;28;20045;-65
2022/04/21 04:46:40;;;;;;;13.95;9.75;;;;;;;12.49;65.92;100424.81;5052124;28;20175;-64
2022/04/21 04:49:10;;;;;;;11.55;7.68;;;;;;;12.59;65.68;100422.75;5052095;28;20025;-65
2022/04/21 04:51:43;;;;;;;12.82;7.10;;;;;;;12.67;65.35;100440.97;5062084;28;20104;-66
2022/04/21 04:54:11;;;;;;;11.85;7.20;;;;;;;12.83;65.32;100429.06;5054142;28;20039;-65
2022/04/21 04:56:38;;;;;;;10.63;6.78;;;;;;;12.94;65.06;100426.97;5069004;28;20411;-66
2022/04/21 04:59:03;;;;;;;17.13;9.93;;;;;;;13.11;64.57;100433.50;5053049;28;20087;-65
2022/04/21 05:01:42;;;;;;;19.10;10.02;;;;;;;13.21;63.92;100432.31;5053240;28;20159;-65
2022/04/21 05:04:09;;;;;;;12.48;7.07;;;;;;;13.29;63.96;100432.97;5053998;28;20033;-64
2022/04/21 05:06:41;;;;;;;17.55;6.45;;;;;;;13.41;63.53;100429.94;5054331;28;20040;-65
2022/04/21 05:09:10;;;;;;;11.93;5.43;;;;;;;13.47;62.91;100420.94;5054126;28;20029;-64
2022/04/21 05:11:36;;;;;;;10.68;4.60;;;;;;;13.47;63.21;100426.22;5055093;28;20044;-64
2022/04/21 05:14:03;;;;;;;8.68;5.15;;;;;;;13.47;62.83;100420.94;5052996;28;20040;-63
2022/04/21 05:16:29;;;;;;;9.93;5.13;;;;;;;13.49;62.65;100420.00;5054123;28;20041;-63
2022/04/21 05:18:55;;;;;;;13.80;6.30;;;;;;;13.50;62.73;100419.06;5053751;28;20119;-63
2022/04/21 05:21:21;;;;;;;12.88;7.20;;;;;;;13.41;62.95;100419.38;5053274;28;20038;-65
2022/04/21 05:23:47;;;;;;;11.25;6.20;;;;;;;13.51;62.59;100420.78;5051708;28;20025;-65
2022/04/21 05:26:15;;;;;;;9.85;6.20;;;;;;;13.61;62.61;100420.50;5054309;28;20033;-65
2022/04/21 05:28:43;;;;;;;9.20;6.38;;;;;;;13.59;62.11;100423.16;5053638;28;20024;-65
2022/04/21 05:31:09;;;;;;;11.75;6.40;;;;;;;13.69;62.09;100423.75;5050591;28;20071;-65
2022/04/21 05:33:37;;;;;;;10.73;6.32;;;;;;;13.70;62.10;100425.47;5050224;28;20072;-66
2022/04/21 05:36:04;;;;;;;15.00;7.13;;;;;;;13.75;61.68;100424.38;5051326;28;20461;-64
2022/04/21 05:38:30;;;;;;;12.50;7.13;;;;;;;13.83;61.60;100429.41;5055669;28;20043;-66
2022/04/21 05:40:55;;;;;;;18.65;8.30;;;;;;;14.00;61.39;100428.81;5054192;28;20132;-65
2022/04/21 05:43:25;;;;;;;17.23;7.32;;;;;;;14.18;60.96;100432.59;5050644;28;20041;-66
2022/04/21 05:45:50;;;;;;;16.40;8.32;;;;;;;14.49;60.21;100427.97;5053470;28;20045;-65
2022/04/21 05:48:16;;;;;;;13.80;7.15;;;;;;;14.53;59.95;100434.88;5053471;28;20037;-64
2022/04/21 05:50:48;;;;;;;20.15;8.60;;;;;;;14.35;59.33;100430.19;5053694;28;20112;-63
2022/04/21 05:53:26;;;;;;;14.63;7.35;;;;;;;14.46;59.55;100432.47;5051735;28;20052;-63
2022/04/21 05:55:53;;;;;;;11.55;6.47;;;;;;;14.24;60.20;100429.72;5067059;28;20493;-64
2022/04/21 05:58:20;;;;;;;14.20;6.22;;;;;;;14.03;60.65;100431.34;5053064;28;20479;-66
2022/04/21 06:00:46;;;;;;;11.07;6.00;;;;;;;13.93;60.79;100438.75;5052886;28;20108;-66
2022/04/21 06:03:12;;;;;;;11.32;6.38;;;;;;;13.86;61.16;100439.00;5034584;28;20473;-65
2022/04/21 06:05:39;;;;;;;10.15;5.57;;;;;;;13.73;61.36;100431.50;5061805;28;20037;-65
2022/04/21 06:08:06;;;;;;;12.20;5.65;;;;;;;13.66;61.82;100437.91;5055420;28;20396;-64
2022/04/21 06:10:35;;;;;;;11.75;5.75;;;;;;;13.59;62.01;100430.22;5051026;28;20040;-64
2022/04/21 06:13:02;;;;;;;11.85;6.38;;;;;;;13.67;61.96;100428.19;5052009;28;20476;-63
2022/04/21 06:15:32;;;;;;;10.82;6.07;;;;;;;13.76;61.74;100426.13;5054682;28;20096;-64
2022/04/21 06:17:58;;;;;;;10.27;5.50;;;;;;;13.82;61.57;100430.31;5053473;28;20037;-66
2022/04/21 06:20:24;;;;;;;12.98;5.47;;;;;;;13.82;61.32;100425.03;5046488;28;20189;-66
2022/04/21 06:22:49;;;;;;;10.15;5.60;;;;;;;13.84;61.14;100428.47;5050772;28;20133;-64
2022/04/21 06:25:15;;;;;;;10.02;4.88;;;;;;;13.91;61.17;100426.50;5050980;28;20055;-64
2022/04/21 06:27:41;;;;;;;6.80;4.78;;;;;;;14.12;60.73;100423.09;5053007;28;20037;-64
2022/04/21 06:30:06;;;;;;;9.20;5.30;;;;;;;14.17;60.61;100429.09;5047145;28;20049;-64
2022/04/21 06:32:32;;;;;;;10.30;5.55;;;;;;;14.28;59.91;100434.88;5052562;28;20392;-64
2022/04/21 06:34:57;;;;;;;11.65;4.80;;;;;;;14.35;60.14;100432.84;5052038;28;20041;-63
2022/04/21 06:37:23;;;;;;;11.73;4.97;;;;;;;14.52;59.53;100434.91;5053246;28;20044;-64
2022/04/21 06:39:49;;;;;;;9.95;4.82;;;;;;;14.56;59.10;100423.28;5053163;28;20045;-63
2022/04/21 06:42:14;;;;;;;8.65;4.63;;;;;;;14.72;58.54;100426.22;5052009;28;20033;-65
2022/04/21 06:50:09;;;;;;;8.02;3.97;;;;;;;14.98;57.64;100420.78;5049741;28;20058;-64
2022/04/21 06:52:34;;;;;;;8.48;4.00;;;;;;;15.15;57.30;100409.53;5052196;28;20388;-66
2022/04/21 06:55:00;;;;;;;10.85;4.45;;;;;;;15.27;56.59;100411.69;5050778;28;20041;-64
2022/04/21 06:57:25;;;;;;;8.63;4.32;;;;;;;15.42;56.35;100410.22;5050374;28;20029;-64
2022/04/21 06:59:51;;;;;;;7.20;4.60;;;;;;;15.60;56.26;100413.91;5056653;28;20041;-64
2022/04/21 07:02:16;;;;;;;8.18;4.97;;;;;;;15.73;56.43;100422.22;5070360;28;20029;-65
2022/04/21 07:04:42;;;;;;;7.90;5.07;;;;;;;15.65;56.37;100408.44;5060823;28;20112;-65
2022/04/21 07:07:07;;;;;;;11.45;4.47;;;;;;;15.50;56.09;100413.41;5052850;28;20032;-65
2022/04/21 07:09:33;;;;;;;13.77;5.70;;;;;;;15.55;56.43;100415.84;5053114;28;20033;-65
2022/04/21 07:11:59;;;;;;;11.02;6.05;;;;;;;15.80;56.40;100410.44;5053235;28;20029;-64
2022/04/21 07:14:24;;;;;;;9.60;5.32;;;;;;;15.79;56.77;100416.66;5050724;28;20465;-64
2022/04/21 07:16:50;;;;;;;9.32;5.75;;;;;;;15.76;56.50;100412.34;5033886;28;20041;-63
2022/04/21 07:19:15;;;;;;;11.95;5.50;;;;;;;15.73;56.26;100419.56;5050110;28;20071;-64
2022/04/21 07:21:40;;;;;;;9.52;5.07;;;;;;;15.74;56.35;100421.28;5052851;28;20450;-64
2022/04/21 07:24:06;;;;;;;11.32;4.65;;;;;;;15.55;55.74;100415.84;5053590;28;20052;-64
2022/04/21 07:26:31;;;;;;;6.43;4.70;;;;;;;15.56;55.63;100412.31;5052953;28;20025;-64
2022/04/21 07:28:57;;;;;;;8.48;5.28;;;;;;;15.59;56.11;100413.94;5052977;28;20099;-63
2022/04/21 07:31:23;;;;;;;9.13;5.03;;;;;;;15.62;55.72;100413.81;5052721;28;20036;-64
2022/04/21 07:33:48;;;;;;;6.50;3.88;;;;;;;15.67;55.12;100417.16;5053150;28;20043;-64
2022/04/21 07:36:14;;;;;;;7.10;3.80;;;;;;;15.55;54.05;100412.34;5053024;28;20025;-64
2022/04/21 07:38:39;;;;;;;7.45;4.10;;;;;;;15.64;54.36;100417.25;5052937;28;20132;-65
2022/04/21 07:41:04;;;;;;;5.80;3.50;;;;;;;15.80;54.41;100415.75;5052135;28;20119;-65
2022/04/21 07:43:32;;;;;;;6.82;3.85;;;;;;;15.89;54.57;100417.13;5053068;28;20071;-65
2022/04/21 07:45:58;;;;;;;6.07;3.90;;;;;;;15.95;53.94;100411.53;5052895;28;20104;-64
2022/04/21 07:49:44;;;;;;;6.32;3.72;;;;;;;16.11;53.36;100409.94;5052161;28;20112;-65
2022/04/21 07:51:08;;;;;;;7.50;4.00;;;;;;;16.29;53.62;100402.97;5051462;28;20037;-64
2022/04/21 07:53:34;;;;;;;7.03;4.40;;;;;;;16.20;53.40;100400.75;5051670;28;20037;-64
2022/04/21 07:55:59;;;;;;;5.65;3.83;;;;;;;16.14;52.90;100404.53;5051446;28;20061;-63
2022/04/21 07:58:27;;;;;;;6.43;3.92;;;;;;;16.10;53.66;100402.06;5052353;28;20028;-63
2022/04/21 08:00:52;;;;;;;7.75;4.63;;;;;;;16.13;53.77;100400.16;5053851;28;20107;-64
2022/04/21 08:03:19;;;;;;;9.88;4.70;;;;;;;16.13;53.81;100402.81;5056515;28;20602;-65
2022/04/21 08:05:45;;;;;;;13.57;5.30;;;;;;;16.27;53.94;100402.19;5056060;28;20041;-65
2022/04/21 08:08:11;;;;;;;7.38;4.68;;;;;;;16.29;53.36;100400.34;5053682;28;20384;-63
2022/04/21 08:10:36;;;;;;;7.35;4.90;;;;;;;16.52;53.26;100394.00;5054398;28;20112;-63
2022/04/21 08:13:01;;;;;;;7.95;4.78;;;;;;;16.30;53.28;100398.53;5053244;28;20037;-63
2022/04/21 08:15:29;;;;;;;10.93;4.95;;;;;;;16.39;53.50;100385.72;5055122;28;20037;-64
2022/04/21 08:17:57;;;;;;;7.60;4.55;;;;;;;16.38;53.57;100375.19;5054375;28;20029;-65
2022/04/21 08:20:24;;;;;;;6.75;4.30;;;;;;;16.49;53.23;100383.53;5054275;28;20621;-64
2022/04/21 08:22:50;;;;;;;7.03;4.03;;;;;;;16.61;52.95;100379.44;5055111;28;20503;-63
2022/04/21 08:33:27;;;;;;;7.75;3.80;;;;;;;17.34;50.66;100375.91;5054528;28;20087;-65
2022/04/21 08:35:58;;;;;;;5.90;3.67;;;;;;;17.57;49.97;100381.88;5055702;28;20080;-65
2022/04/21 08:38:27;;;;;;;9.30;3.60;;;;;;;17.58;48.98;100381.81;5055489;28;20025;-65
2022/04/21 08:41:07;;;;;;;9.10;3.72;;;;;;;17.63;49.23;100373.59;5053019;28;20064;-64
2022/04/21 08:43:36;;;;;;;10.45;4.30;;;;;;;17.70;49.34;100375.84;5055237;28;20083;-63
2022/04/21 08:46:04;;;;;;;7.57;3.95;;;;;;;17.83;48.01;100370.81;5054060;28;20476;-64
2022/04/21 08:48:30;;;;;;;6.20;3.45;;;;;;;17.89;48.53;100369.66;5077128;28;20048;-65
2022/04/21 08:50:56;;;;;;;8.20;3.60;;;;;;;18.17;48.23;100369.91;5067231;28;20116;-64
2022/04/21 08:53:26;;;;;;;6.03;3.60;;;;;;;18.17;47.49;100375.22;5054817;28;20104;-65
2022/04/21 08:55:52;;;;;;;5.97;3.47;;;;;;;18.21;47.47;100363.47;5055581;28;20396;-65
2022/04/21 08:58:19;;;;;;;8.77;3.88;;;;;;;18.40;47.41;100355.38;5055432;28;20456;-65
2022/04/21 09:00:45;;;;;;;7.60;4.03;;;;;;;18.46;46.91;100376.31;5053255;28;20060;-65
2022/04/21 09:03:14;;;;;;;6.82;3.30;;;;;;;18.47;46.32;100361.19;5052879;28;20068;-65
2022/04/21 09:05:41;;;;;;;4.03;3.35;;;;;;;18.63;46.12;100350.56;5054644;28;20033;-65
2022/04/21 09:08:25;;;;;;;9.82;3.90;;;;;;;18.30;45.51;100355.94;5052255;28;20090;-64
2022/04/21 09:11:06;;;;;;;6.03;3.22;;;;;;;18.17;46.29;100353.09;5048827;28;20021;-65
2022/04/21 09:13:58;;;;;;;6.82;3.40;;;;;;;18.05;46.65;100351.09;5051164;28;20481;-65
2022/04/21 09:16:33;;;;;;;7.90;3.42;;;;;;;17.83;46.74;100352.19;5052886;28;20029;-64
2022/04/21 09:19:01;;;;;;;10.20;3.55;;;;;;;18.04;47.16;100346.72;5054550;28;21009;-65
2022/04/21 09:21:38;;;;;;;10.95;3.80;;;;;;;18.37;46.59;100360.00;5060948;28;20154;-64
2022/04/21 09:24:23;;;;;;;6.47;3.70;;;;;;;18.31;45.40;100334.59;5052704;28;20361;-64
2022/04/21 09:26:49;;;;;;;14.57;3.90;;;;;;;18.46;46.25;100340.88;5048863;28;20059;-65
2022/04/21 09:29:30;;;;;;;9.65;3.13;;;;;;;18.50;44.56;100347.75;5053393;28;20120;-64
2022/04/21 09:32:04;;;;;;;5.65;2.78;;;;;;;18.42;43.88;100340.16;5053821;28;20029;-64
2022/04/21 09:34:29;;;;;;;5.47;2.33;;;;;;;18.45;43.43;100348.00;5053204;28;20051;-66
2022/04/21 09:36:59;;;;;;;4.88;2.40;;;;;;;18.33;43.75;100343.34;5050968;28;20038;-66
2022/04/21 09:39:24;;;;;;;5.28;2.45;;;;;;;18.49;43.09;100338.03;5052642;28;20489;-65
2022/04/21 09:41:56;;;;;;;5.90;2.20;;;;;;;18.15;39.92;100331.91;5053912;28;20029;-66
2022/04/21 09:47:20;;;;;;;5.22;2.10;;;;;;;17.78;40.65;100334.78;5050239;28;20040;-66
2022/04/21 09:49:46;;;;;;;5.00;2.30;;;;;;;17.93;39.69;100329.53;5046617;28;20051;-64
2022/04/21 09:52:13;;;;;;;5.50;2.45;;;;;;;18.00;39.34;100323.91;5054154;28;20476;-64
2022/04/21 09:54:40;;;;;;;6.82;2.00;;;;;;;17.89;39.12;100325.31;5052650;28;20029;-64
2022/04/21 09:57:07;;;;;;;8.75;2.03;;;;;;;18.21;39.32;100322.75;5052312;28;20091;-66
2022/04/21 09:59:36;;;;;;;2.95;1.80;;;;;;;18.38;39.38;100327.13;5052752;28;20044;-64
2022/04/21 10:02:02;;;;;;;4.88;2.05;;;;;;;18.52;39.41;100331.72;5049181;28;20495;-65
2022/04/21 10:04:29;;;;;;;7.18;1.85;;;;;;;18.55;37.67;100318.22;5051326;28;20032;-65
2022/04/21 10:06:57;;;;;;;3.92;1.73;;;;;;;18.62;37.49;100324.91;5052959;28;20060;-65
2022/04/21 10:09:23;;;;;;;5.03;1.95;;;;;;;18.84;36.82;100319.28;5051289;28;20021;-66
2022/04/21 10:11:50;;;;;;;3.83;1.70;;;;;;;18.72;36.73;100328.81;5052412;28;20116;-64
2022/04/21 10:14:17;;;;;;;2.47;1.67;;;;;;;18.61;35.98;100356.00;5051508;28;20432;-64
2022/04/21 10:16:43;;;;;;;4.47;1.75;;;;;;;18.67;36.12;100325.50;5054318;28;20036;-65
2022/04/21 10:19:11;;;;;;;5.13;2.00;;;;;;;18.19;35.42;100319.28;5052906;28;20049;-66
2022/04/21 10:22:00;;;;;;;3.92;2.20;;;;;;;18.30;35.60;100326.69;5053378;28;20065;-65
2022/04/21 10:24:27;;;;;;;5.18;1.50;;;;;;;18.36;36.32;100319.25;5055038;28;20107;-64
2022/04/21 10:26:54;;;;;;;3.53;1.48;;;;;;;18.54;36.35;100317.34;5051328;28;20033;-63
2022/04/21 10:29:23;;;;;;;3.85;1.90;;;;;;;18.45;35.99;100331.19;5054232;28;20041;-64
2022/04/21 10:31:57;;;;;;;7.10;1.98;;;;;;;18.06;35.47;100319.09;5049060;28;20036;-62
2022/04/21 10:34:34;;;;;;;4.03;1.92;;;;;;;17.76;33.78;100334.88;5051179;28;20041;-63
2022/04/21 10:37:07;;;;;;;5.43;2.35;;;;;;;18.02;35.68;100329.97;5048505;28;20039;-62
2022/04/21 10:39:33;;;;;;;4.43;2.00;;;;;;;18.16;35.69;100330.09;5048489;28;20040;-63
2022/04/21 10:42:07;;;;;;;4.18;2.15;;;;;;;18.23;35.71;100339.44;5050870;28;20043;-64
2022/04/21 10:44:43;;;;;;;5.95;1.88;;;;;;;18.28;35.02;100323.28;5052520;28;20116;-63
2022/04/21 10:47:38;;;;;;;4.30;1.90;;;;;;;18.11;33.69;100342.78;5052134;28;20044;-65
2022/04/21 10:50:12;;;;;;;3.85;1.80;;;;;;;17.89;34.74;100330.63;5044678;28;20041;-64
2022/04/21 10:57:50;;;;;;;3.97;2.00;;;;;;;19.86;31.68;100349.72;5048920;28;20044;-63
2022/04/21 11:00:26;;;;;;;3.83;1.65;;;;;;;20.41;30.81;100325.81;5049955;28;20025;-64
2022/04/21 11:03:09;;;;;;;2.65;1.67;;;;;;;18.41;33.66;100335.81;5051506;28;20033;-64
2022/04/21 11:05:36;;;;;;;4.50;2.10;;;;;;;18.69;33.14;100321.81;5051254;28;20476;-64
2022/04/21 11:08:26;;;;;;;4.32;1.88;;;;;;;17.72;34.78;100325.31;5052873;28;20037;-64
2022/04/21 11:10:51;;;;;;;4.57;1.80;;;;;;;17.55;35.28;100320.00;5051125;28;20033;-65
2022/04/21 11:13:18;;;;;;;3.60;2.00;;;;;;;17.46;35.50;100332.81;5052703;28;20392;-63
2022/04/21 11:15:44;;;;;;;4.90;1.70;;;;;;;17.42;35.97;100339.22;5052343;28;20508;-63
2022/04/21 11:18:18;;;;;;;3.58;2.08;;;;;;;17.73;36.02;100321.72;5052601;28;20041;-64
2022/04/21 11:20:46;;;;;;;2.83;1.70;;;;;;;17.78;35.91;100313.53;5049647;28;20041;-64
2022/04/21 11:23:44;;;;;;;4.88;2.25;;;;;;;18.02;36.00;100317.53;5051149;28;20128;-63
2022/04/21 11:26:09;;;;;;;3.45;1.80;;;;;;;17.92;36.25;100319.84;5028618;28;20199;-63
2022/04/21 11:28:35;;;;;;;6.93;2.30;;;;;;;17.53;35.99;100312.13;5048650;28;20111;-63
2022/04/21 11:31:04;;;;;;;3.50;1.75;;;;;;;17.74;35.70;100328.72;5057067;28;20473;-63
2022/04/21 11:33:32;;;;;;;4.35;1.60;;;;;;;17.73;35.81;100327.03;5040836;28;20033;-63
2022/04/21 11:36:14;;;;;;;4.45;1.77;;;;;;;17.27;36.11;100324.03;5045021;28;20037;-63
2022/04/21 11:38:44;;;;;;;2.17;1.58;;;;;;;17.32;35.57;100315.88;5050886;28;20131;-63
2022/04/21 11:41:12;;;;;;;4.75;1.92;;;;;;;17.39;35.94;100311.94;5068634;28;20450;-63
2022/04/21 11:43:48;;;;;;;3.22;2.00;;;;;;;17.57;36.46;100310.16;5074215;28;20472;-64
2022/04/21 11:46:14;;;;;;;3.00;1.75;;;;;;;17.78;36.41;100319.69;5053613;28;20044;-63
2022/04/21 11:48:41;;;;;;;3.72;1.98;;;;;;;17.47;36.00;100312.41;5055773;28;20041;-63
2022/04/21 11:51:09;;;;;;;4.10;1.67;;;;;;;17.58;35.54;100314.53;5055974;28;20037;-63
2022/04/21 11:53:40;;;;;;;4.40;1.90;;;;;;;17.62;36.23;100324.06;5059780;28;20086;-63
2022/04/21 11:56:08;;;;;;;3.90;1.90;;;;;;;17.63;35.53;100315.13;5061804;28;20495;-62
2022/04/21 11:58:35;;;;;;;2.60;1.80;;;;;;;17.53;35.04;100348.44;5054129;28;20051;-64
2022/04/21 12:06:51;;;;;;;2.38;1.50;;;;;;;17.87;35.83;100318.34;5054291;28;20063;-63
2022/04/21 12:09:20;;;;;;;3.95;1.73;;;;;;;17.88;36.09;100314.78;5056080;28;20138;-63
2022/04/21 12:11:49;;;;;;;5.82;1.85;;;;;;;17.95;36.08;100309.06;5056011;28;20037;-63
2022/04/21 12:14:18;;;;;;;3.45;1.90;;;;;;;18.01;35.91;100321.16;5051511;28;20459;-63
2022/04/21 12:16:46;;;;;;;4.28;1.83;;;;;;;17.67;35.99;100308.72;5054142;28;20065;-63